Puerto Cabezas, Nicaragua
Current Conditions -  °F | °C
As of 10:00 PM on Sunday 21 Dec 2014 (Local Time) from SKSP Reporting Station
Few Clouds Few Clouds  
Wind Chill: 82°   Ceiling: Unl
Heat Index: 88°   Visibility: 6mi
Dew Point: 73°   Wind: 7mph
Humidity: 74%   Direction: 70°ENE
Pressure: 29.9"   Gusts: NA
Location:  14.03°N, 83.39°W
Report Text: SKSP 220400Z 07006KT 9999 FEW018 28/23 A2990
Loading
Personal Weather Stations






























Interactive Weather Map New forecast layout! Learn more

10-Day Weather Forecast

Advertisements
Track Severe Weather on mobile